sensor_id;sensor_type;location;lat;lon;timestamp;P1;durP1;ratioP1;P2;durP2;ratioP2
39890;SDS011;25564;53.312;9.790;2024-01-11T00:00:04;31.70;;;12.03;;
39890;SDS011;25564;53.312;9.790;2024-01-11T00:02:36;32.47;;;12.63;;
39890;SDS011;25564;53.312;9.790;2024-01-11T00:05:08;33.40;;;14.73;;
39890;SDS011;25564;53.312;9.790;2024-01-11T00:07:40;30.30;;;12.53;;
39890;SDS011;25564;53.312;9.790;2024-01-11T00:10:12;35.77;;;12.97;;
39890;SDS011;25564;53.312;9.790;2024-01-11T00:12:44;28.93;;;12.57;;
39890;SDS011;25564;53.312;9.790;2024-01-11T00:15:15;30.67;;;13.00;;
39890;SDS011;25564;53.312;9.790;2024-01-11T00:17:47;31.37;;;12.20;;
39890;SDS011;25564;53.312;9.790;2024-01-11T00:20:18;30.70;;;12.50;;
39890;SDS011;25564;53.312;9.790;2024-01-11T00:22:50;36.00;;;12.53;;
39890;SDS011;25564;53.312;9.790;2024-01-11T00:25:21;32.07;;;13.40;;
39890;SDS011;25564;53.312;9.790;2024-01-11T00:27:53;34.53;;;13.93;;
39890;SDS011;25564;53.312;9.790;2024-01-11T00:30:24;33.93;;;12.17;;
39890;SDS011;25564;53.312;9.790;2024-01-11T00:32:55;40.67;;;15.07;;
39890;SDS011;25564;53.312;9.790;2024-01-11T00:35:27;33.00;;;13.07;;
39890;SDS011;25564;53.312;9.790;2024-01-11T00:37:58;43.70;;;14.90;;
39890;SDS011;25564;53.312;9.790;2024-01-11T00:40:30;36.13;;;13.93;;
39890;SDS011;25564;53.312;9.790;2024-01-11T00:43:01;45.97;;;17.20;;
39890;SDS011;25564;53.312;9.790;2024-01-11T00:45:33;42.27;;;13.47;;
39890;SDS011;25564;53.312;9.790;2024-01-11T00:48:04;43.63;;;16.13;;
39890;SDS011;25564;53.312;9.790;2024-01-11T00:50:36;50.90;;;15.80;;
39890;SDS011;25564;53.312;9.790;2024-01-11T00:53:08;41.27;;;14.60;;
39890;SDS011;25564;53.312;9.790;2024-01-11T00:55:40;43.17;;;14.70;;
39890;SDS011;25564;53.312;9.790;2024-01-11T00:58:11;40.63;;;14.07;;
39890;SDS011;25564;53.312;9.790;2024-01-11T01:00:43;36.37;;;14.43;;
39890;SDS011;25564;53.312;9.790;2024-01-11T01:03:15;37.37;;;14.03;;
39890;SDS011;25564;53.312;9.790;2024-01-11T01:05:47;52.07;;;17.20;;
39890;SDS011;25564;53.312;9.790;2024-01-11T01:08:19;45.07;;;15.20;;
39890;SDS011;25564;53.312;9.790;2024-01-11T01:10:50;49.27;;;16.90;;
39890;SDS011;25564;53.312;9.790;2024-01-11T01:13:21;38.90;;;15.50;;
39890;SDS011;25564;53.312;9.790;2024-01-11T01:15:53;45.27;;;15.33;;
39890;SDS011;25564;53.312;9.790;2024-01-11T01:18:24;44.43;;;15.30;;
39890;SDS011;25564;53.312;9.790;2024-01-11T01:20:56;46.37;;;15.20;;
39890;SDS011;25564;53.312;9.790;2024-01-11T01:23:27;40.83;;;15.93;;
39890;SDS011;25564;53.312;9.790;2024-01-11T01:25:59;38.73;;;14.47;;
39890;SDS011;25564;53.312;9.790;2024-01-11T01:28:33;41.17;;;15.33;;
39890;SDS011;25564;53.312;9.790;2024-01-11T01:31:04;41.83;;;15.23;;
39890;SDS011;25564;53.312;9.790;2024-01-11T01:33:35;41.30;;;14.27;;
39890;SDS011;25564;53.312;9.790;2024-01-11T01:36:10;48.93;;;15.00;;
39890;SDS011;25564;53.312;9.790;2024-01-11T01:38:42;49.50;;;14.93;;
39890;SDS011;25564;53.312;9.790;2024-01-11T01:41:13;40.83;;;15.43;;
39890;SDS011;25564;53.312;9.790;2024-01-11T01:43:45;36.00;;;14.63;;
39890;SDS011;25564;53.312;9.790;2024-01-11T01:46:21;47.40;;;17.30;;
39890;SDS011;25564;53.312;9.790;2024-01-11T01:48:55;36.23;;;13.80;;
39890;SDS011;25564;53.312;9.790;2024-01-11T01:51:29;38.67;;;14.93;;
39890;SDS011;25564;53.312;9.790;2024-01-11T01:54:02;42.70;;;16.40;;
39890;SDS011;25564;53.312;9.790;2024-01-11T01:56:34;39.90;;;14.60;;
39890;SDS011;25564;53.312;9.790;2024-01-11T01:59:06;35.70;;;13.83;;
39890;SDS011;25564;53.312;9.790;2024-01-11T02:01:39;43.57;;;16.40;;
39890;SDS011;25564;53.312;9.790;2024-01-11T02:04:11;39.07;;;17.33;;
39890;SDS011;25564;53.312;9.790;2024-01-11T02:06:44;39.00;;;15.60;;
39890;SDS011;25564;53.312;9.790;2024-01-11T02:09:17;40.10;;;14.63;;
39890;SDS011;25564;53.312;9.790;2024-01-11T02:11:49;43.27;;;16.07;;
39890;SDS011;25564;53.312;9.790;2024-01-11T02:14:23;43.17;;;15.60;;
39890;SDS011;25564;53.312;9.790;2024-01-11T02:16:54;38.77;;;15.73;;
39890;SDS011;25564;53.312;9.790;2024-01-11T02:19:26;39.80;;;15.93;;
39890;SDS011;25564;53.312;9.790;2024-01-11T02:21:58;41.10;;;17.07;;
39890;SDS011;25564;53.312;9.790;2024-01-11T02:24:33;40.20;;;16.02;;
39890;SDS011;25564;53.312;9.790;2024-01-11T02:27:05;41.30;;;15.43;;
39890;SDS011;25564;53.312;9.790;2024-01-11T02:29:36;39.17;;;16.53;;
39890;SDS011;25564;53.312;9.790;2024-01-11T02:32:08;37.30;;;16.30;;
39890;SDS011;25564;53.312;9.790;2024-01-11T02:34:39;36.40;;;16.63;;
39890;SDS011;25564;53.312;9.790;2024-01-11T02:37:11;39.00;;;16.53;;
39890;SDS011;25564;53.312;9.790;2024-01-11T02:39:43;43.53;;;17.37;;
39890;SDS011;25564;53.312;9.790;2024-01-11T02:42:15;39.23;;;16.30;;
39890;SDS011;25564;53.312;9.790;2024-01-11T02:44:47;42.03;;;17.77;;
39890;SDS011;25564;53.312;9.790;2024-01-11T02:47:18;39.97;;;16.70;;
39890;SDS011;25564;53.312;9.790;2024-01-11T02:49:50;40.13;;;18.00;;
39890;SDS011;25564;53.312;9.790;2024-01-11T02:52:24;42.00;;;16.73;;
39890;SDS011;25564;53.312;9.790;2024-01-11T02:54:55;45.63;;;17.70;;
39890;SDS011;25564;53.312;9.790;2024-01-11T02:57:27;44.13;;;16.97;;
39890;SDS011;25564;53.312;9.790;2024-01-11T02:59:58;42.40;;;16.77;;
39890;SDS011;25564;53.312;9.790;2024-01-11T03:02:29;50.10;;;18.63;;
39890;SDS011;25564;53.312;9.790;2024-01-11T03:05:02;38.63;;;16.17;;
39890;SDS011;25564;53.312;9.790;2024-01-11T03:07:34;48.77;;;18.30;;
39890;SDS011;25564;53.312;9.790;2024-01-11T03:10:05;49.70;;;15.50;;
39890;SDS011;25564;53.312;9.790;2024-01-11T03:12:39;51.20;;;17.90;;
39890;SDS011;25564;53.312;9.790;2024-01-11T03:15:10;47.40;;;17.63;;
39890;SDS011;25564;53.312;9.790;2024-01-11T03:17:42;39.07;;;15.97;;
39890;SDS011;25564;53.312;9.790;2024-01-11T03:20:13;40.27;;;15.30;;
39890;SDS011;25564;53.312;9.790;2024-01-11T03:22:45;37.70;;;13.20;;
39890;SDS011;25564;53.312;9.790;2024-01-11T03:25:18;39.77;;;14.83;;
39890;SDS011;25564;53.312;9.790;2024-01-11T03:27:49;32.70;;;12.33;;
39890;SDS011;25564;53.312;9.790;2024-01-11T03:30:21;42.67;;;15.37;;
39890;SDS011;25564;53.312;9.790;2024-01-11T03:32:52;38.90;;;13.03;;
39890;SDS011;25564;53.312;9.790;2024-01-11T03:35:24;39.63;;;14.23;;
39890;SDS011;25564;53.312;9.790;2024-01-11T03:37:56;43.53;;;15.27;;
39890;SDS011;25564;53.312;9.790;2024-01-11T03:40:27;44.87;;;16.17;;
39890;SDS011;25564;53.312;9.790;2024-01-11T03:42:58;45.40;;;15.77;;
39890;SDS011;25564;53.312;9.790;2024-01-11T03:45:31;40.30;;;15.07;;
39890;SDS011;25564;53.312;9.790;2024-01-11T03:48:02;36.83;;;14.00;;
39890;SDS011;25564;53.312;9.790;2024-01-11T03:50:33;41.40;;;14.03;;
39890;SDS011;25564;53.312;9.790;2024-01-11T03:53:05;45.30;;;15.03;;
39890;SDS011;25564;53.312;9.790;2024-01-11T03:55:36;39.83;;;13.83;;
39890;SDS011;25564;53.312;9.790;2024-01-11T03:58:08;36.00;;;14.03;;
39890;SDS011;25564;53.312;9.790;2024-01-11T04:00:39;38.00;;;14.40;;
39890;SDS011;25564;53.312;9.790;2024-01-11T04:03:11;35.20;;;13.97;;
39890;SDS011;25564;53.312;9.790;2024-01-11T04:05:42;38.33;;;14.30;;
39890;SDS011;25564;53.312;9.790;2024-01-11T04:08:14;39.83;;;13.73;;
39890;SDS011;25564;53.312;9.790;2024-01-11T04:10:45;39.27;;;14.73;;
39890;SDS011;25564;53.312;9.790;2024-01-11T04:13:16;40.63;;;15.10;;
39890;SDS011;25564;53.312;9.790;2024-01-11T04:15:48;40.47;;;14.30;;
39890;SDS011;25564;53.312;9.790;2024-01-11T04:18:19;42.57;;;14.87;;
39890;SDS011;25564;53.312;9.790;2024-01-11T04:20:51;37.63;;;14.20;;
39890;SDS011;25564;53.312;9.790;2024-01-11T04:23:22;42.00;;;14.63;;
39890;SDS011;25564;53.312;9.790;2024-01-11T04:25:54;37.67;;;13.53;;
39890;SDS011;25564;53.312;9.790;2024-01-11T04:28:25;34.13;;;15.17;;
39890;SDS011;25564;53.312;9.790;2024-01-11T04:30:57;39.47;;;14.23;;
39890;SDS011;25564;53.312;9.790;2024-01-11T04:33:28;38.97;;;15.43;;
39890;SDS011;25564;53.312;9.790;2024-01-11T04:35:59;34.93;;;12.73;;
39890;SDS011;25564;53.312;9.790;2024-01-11T04:38:31;28.60;;;12.43;;
39890;SDS011;25564;53.312;9.790;2024-01-11T04:41:09;37.13;;;13.60;;
39890;SDS011;25564;53.312;9.790;2024-01-11T04:43:44;36.47;;;13.43;;
39890;SDS011;25564;53.312;9.790;2024-01-11T04:46:17;34.80;;;13.53;;
39890;SDS011;25564;53.312;9.790;2024-01-11T04:48:50;38.57;;;14.27;;
39890;SDS011;25564;53.312;9.790;2024-01-11T04:51:22;39.73;;;12.93;;
39890;SDS011;25564;53.312;9.790;2024-01-11T04:53:54;34.33;;;14.43;;
39890;SDS011;25564;53.312;9.790;2024-01-11T04:56:25;38.10;;;13.03;;
39890;SDS011;25564;53.312;9.790;2024-01-11T04:58:57;36.13;;;13.50;;
39890;SDS011;25564;53.312;9.790;2024-01-11T05:01:30;35.77;;;12.97;;
39890;SDS011;25564;53.312;9.790;2024-01-11T05:04:02;33.63;;;13.50;;
39890;SDS011;25564;53.312;9.790;2024-01-11T05:06:33;40.00;;;13.87;;
39890;SDS011;25564;53.312;9.790;2024-01-11T05:09:05;41.33;;;14.43;;
39890;SDS011;25564;53.312;9.790;2024-01-11T05:11:38;40.87;;;13.70;;
39890;SDS011;25564;53.312;9.790;2024-01-11T05:14:10;37.73;;;13.30;;
39890;SDS011;25564;53.312;9.790;2024-01-11T05:16:41;37.27;;;14.00;;
39890;SDS011;25564;53.312;9.790;2024-01-11T05:19:14;40.23;;;13.53;;
39890;SDS011;25564;53.312;9.790;2024-01-11T05:21:46;42.30;;;14.50;;
39890;SDS011;25564;53.312;9.790;2024-01-11T05:24:19;39.63;;;14.13;;
39890;SDS011;25564;53.312;9.790;2024-01-11T05:26:51;47.73;;;15.70;;
39890;SDS011;25564;53.312;9.790;2024-01-11T05:29:22;42.47;;;14.60;;
39890;SDS011;25564;53.312;9.790;2024-01-11T05:31:54;34.13;;;12.83;;
39890;SDS011;25564;53.312;9.790;2024-01-11T05:34:25;41.07;;;13.90;;
39890;SDS011;25564;53.312;9.790;2024-01-11T05:36:57;51.30;;;16.53;;
39890;SDS011;25564;53.312;9.790;2024-01-11T05:39:31;43.87;;;14.63;;
39890;SDS011;25564;53.312;9.790;2024-01-11T05:42:02;42.70;;;14.37;;
39890;SDS011;25564;53.312;9.790;2024-01-11T05:44:33;43.00;;;15.93;;
39890;SDS011;25564;53.312;9.790;2024-01-11T05:47:05;44.50;;;14.80;;
39890;SDS011;25564;53.312;9.790;2024-01-11T05:49:38;49.23;;;15.50;;
39890;SDS011;25564;53.312;9.790;2024-01-11T05:52:09;47.43;;;15.83;;
39890;SDS011;25564;53.312;9.790;2024-01-11T05:54:41;42.00;;;15.67;;
39890;SDS011;25564;53.312;9.790;2024-01-11T05:57:12;45.10;;;15.37;;
39890;SDS011;25564;53.312;9.790;2024-01-11T05:59:44;51.33;;;15.27;;
39890;SDS011;25564;53.312;9.790;2024-01-11T06:02:16;43.20;;;14.37;;
39890;SDS011;25564;53.312;9.790;2024-01-11T06:04:47;48.37;;;15.83;;
39890;SDS011;25564;53.312;9.790;2024-01-11T06:07:20;55.93;;;17.03;;
39890;SDS011;25564;53.312;9.790;2024-01-11T06:09:51;52.70;;;16.10;;
39890;SDS011;25564;53.312;9.790;2024-01-11T06:12:24;39.73;;;15.63;;
39890;SDS011;25564;53.312;9.790;2024-01-11T06:14:55;46.50;;;15.97;;
39890;SDS011;25564;53.312;9.790;2024-01-11T06:17:27;41.70;;;14.23;;
39890;SDS011;25564;53.312;9.790;2024-01-11T06:19:59;49.73;;;15.97;;
39890;SDS011;25564;53.312;9.790;2024-01-11T06:22:31;56.43;;;16.97;;
39890;SDS011;25564;53.312;9.790;2024-01-11T06:25:02;50.43;;;15.43;;
39890;SDS011;25564;53.312;9.790;2024-01-11T06:27:35;42.93;;;15.00;;
39890;SDS011;25564;53.312;9.790;2024-01-11T06:30:06;49.70;;;16.43;;
39890;SDS011;25564;53.312;9.790;2024-01-11T06:32:41;48.93;;;16.60;;
39890;SDS011;25564;53.312;9.790;2024-01-11T06:35:13;45.07;;;15.27;;
39890;SDS011;25564;53.312;9.790;2024-01-11T06:37:44;53.20;;;18.77;;
39890;SDS011;25564;53.312;9.790;2024-01-11T06:40:15;45.87;;;15.87;;
39890;SDS011;25564;53.312;9.790;2024-01-11T06:42:47;59.00;;;18.70;;
39890;SDS011;25564;53.312;9.790;2024-01-11T06:45:18;65.60;;;18.70;;
39890;SDS011;25564;53.312;9.790;2024-01-11T06:47:51;52.33;;;16.97;;
39890;SDS011;25564;53.312;9.790;2024-01-11T06:50:23;66.77;;;17.93;;
39890;SDS011;25564;53.312;9.790;2024-01-11T06:52:55;57.47;;;16.57;;
39890;SDS011;25564;53.312;9.790;2024-01-11T06:55:27;51.17;;;16.73;;
39890;SDS011;25564;53.312;9.790;2024-01-11T06:57:58;56.87;;;22.90;;
39890;SDS011;25564;53.312;9.790;2024-01-11T07:00:30;68.27;;;28.10;;
39890;SDS011;25564;53.312;9.790;2024-01-11T07:03:01;50.40;;;17.70;;
39890;SDS011;25564;53.312;9.790;2024-01-11T07:05:33;51.77;;;17.77;;
39890;SDS011;25564;53.312;9.790;2024-01-11T07:08:05;59.20;;;17.97;;
39890;SDS011;25564;53.312;9.790;2024-01-11T07:10:36;51.63;;;16.47;;
39890;SDS011;25564;53.312;9.790;2024-01-11T07:13:08;46.67;;;15.97;;
39890;SDS011;25564;53.312;9.790;2024-01-11T07:15:42;50.80;;;15.20;;
39890;SDS011;25564;53.312;9.790;2024-01-11T07:18:15;57.43;;;16.63;;
39890;SDS011;25564;53.312;9.790;2024-01-11T07:20:47;54.53;;;17.33;;
39890;SDS011;25564;53.312;9.790;2024-01-11T07:23:19;63.07;;;16.73;;
39890;SDS011;25564;53.312;9.790;2024-01-11T07:25:50;69.20;;;18.13;;
39890;SDS011;25564;53.312;9.790;2024-01-11T07:28:22;75.37;;;19.20;;
39890;SDS011;25564;53.312;9.790;2024-01-11T07:30:56;77.67;;;16.07;;
39890;SDS011;25564;53.312;9.790;2024-01-11T07:33:28;82.07;;;19.80;;
39890;SDS011;25564;53.312;9.790;2024-01-11T07:36:00;68.83;;;16.87;;
39890;SDS011;25564;53.312;9.790;2024-01-11T07:38:32;53.70;;;16.13;;
39890;SDS011;25564;53.312;9.790;2024-01-11T07:41:03;82.10;;;16.60;;
39890;SDS011;25564;53.312;9.790;2024-01-11T07:43:35;75.83;;;19.30;;
39890;SDS011;25564;53.312;9.790;2024-01-11T07:46:23;88.07;;;18.93;;
39890;SDS011;25564;53.312;9.790;2024-01-11T07:53:01;134.13;;;21.83;;
39890;SDS011;25564;53.312;9.790;2024-01-11T07:55:32;80.57;;;17.07;;
39890;SDS011;25564;53.312;9.790;2024-01-11T07:58:04;155.80;;;24.60;;
39890;SDS011;25564;53.312;9.790;2024-01-11T08:00:35;140.47;;;24.30;;
39890;SDS011;25564;53.312;9.790;2024-01-11T08:03:10;142.40;;;23.77;;
39890;SDS011;25564;53.312;9.790;2024-01-11T08:05:42;107.10;;;18.83;;
39890;SDS011;25564;53.312;9.790;2024-01-11T08:08:16;111.07;;;20.13;;
39890;SDS011;25564;53.312;9.790;2024-01-11T08:10:48;172.20;;;25.40;;
39890;SDS011;25564;53.312;9.790;2024-01-11T08:13:21;228.93;;;32.93;;
39890;SDS011;25564;53.312;9.790;2024-01-11T08:15:52;136.63;;;24.63;;
39890;SDS011;25564;53.312;9.790;2024-01-11T08:18:24;143.10;;;23.07;;
39890;SDS011;25564;53.312;9.790;2024-01-11T08:20:56;172.37;;;29.53;;
39890;SDS011;25564;53.312;9.790;2024-01-11T08:23:27;167.57;;;25.33;;
39890;SDS011;25564;53.312;9.790;2024-01-11T08:25:59;139.80;;;24.77;;
39890;SDS011;25564;53.312;9.790;2024-01-11T08:28:30;116.97;;;18.47;;
39890;SDS011;25564;53.312;9.790;2024-01-11T08:31:01;91.93;;;18.07;;
39890;SDS011;25564;53.312;9.790;2024-01-11T08:33:36;96.00;;;19.13;;
39890;SDS011;25564;53.312;9.790;2024-01-11T08:36:08;66.57;;;17.30;;
39890;SDS011;25564;53.312;9.790;2024-01-11T08:38:40;64.30;;;15.03;;
39890;SDS011;25564;53.312;9.790;2024-01-11T08:41:12;69.77;;;16.87;;
39890;SDS011;25564;53.312;9.790;2024-01-11T08:43:43;65.20;;;16.77;;
39890;SDS011;25564;53.312;9.790;2024-01-11T08:46:23;69.73;;;17.60;;
39890;SDS011;25564;53.312;9.790;2024-01-11T08:48:57;72.67;;;17.10;;
39890;SDS011;25564;53.312;9.790;2024-01-11T08:51:29;62.80;;;17.30;;
39890;SDS011;25564;53.312;9.790;2024-01-11T08:54:01;64.27;;;17.97;;
39890;SDS011;25564;53.312;9.790;2024-01-11T08:56:32;66.70;;;18.70;;
39890;SDS011;25564;53.312;9.790;2024-01-11T08:59:05;65.47;;;17.93;;
39890;SDS011;25564;53.312;9.790;2024-01-11T09:01:36;46.47;;;15.30;;
39890;SDS011;25564;53.312;9.790;2024-01-11T09:04:08;53.37;;;16.37;;
39890;SDS011;25564;53.312;9.790;2024-01-11T09:06:40;58.70;;;17.27;;
39890;SDS011;25564;53.312;9.790;2024-01-11T09:09:11;53.13;;;16.67;;
39890;SDS011;25564;53.312;9.790;2024-01-11T09:11:44;57.13;;;17.17;;
39890;SDS011;25564;53.312;9.790;2024-01-11T09:14:16;59.23;;;18.30;;
39890;SDS011;25564;53.312;9.790;2024-01-11T09:16:47;51.87;;;17.50;;
39890;SDS011;25564;53.312;9.790;2024-01-11T09:19:20;55.37;;;17.27;;
39890;SDS011;25564;53.312;9.790;2024-01-11T09:21:51;57.70;;;17.63;;
39890;SDS011;25564;53.312;9.790;2024-01-11T09:24:23;48.37;;;14.83;;
39890;SDS011;25564;53.312;9.790;2024-01-11T09:26:54;53.93;;;17.77;;
39890;SDS011;25564;53.312;9.790;2024-01-11T09:29:25;54.60;;;17.43;;
39890;SDS011;25564;53.312;9.790;2024-01-11T09:31:58;53.43;;;17.00;;
39890;SDS011;25564;53.312;9.790;2024-01-11T09:34:30;54.63;;;17.70;;
39890;SDS011;25564;53.312;9.790;2024-01-11T09:37:03;50.07;;;17.00;;
39890;SDS011;25564;53.312;9.790;2024-01-11T09:39:34;54.33;;;20.20;;
39890;SDS011;25564;53.312;9.790;2024-01-11T09:42:06;62.40;;;18.20;;
39890;SDS011;25564;53.312;9.790;2024-01-11T09:44:40;59.67;;;17.27;;
39890;SDS011;25564;53.312;9.790;2024-01-11T09:47:12;51.40;;;16.00;;
39890;SDS011;25564;53.312;9.790;2024-01-11T09:49:48;45.53;;;15.50;;
39890;SDS011;25564;53.312;9.790;2024-01-11T09:52:22;43.80;;;16.63;;
39890;SDS011;25564;53.312;9.790;2024-01-11T09:54:56;58.53;;;19.23;;
39890;SDS011;25564;53.312;9.790;2024-01-11T09:57:31;51.53;;;17.07;;
39890;SDS011;25564;53.312;9.790;2024-01-11T10:00:06;52.30;;;17.90;;
39890;SDS011;25564;53.312;9.790;2024-01-11T10:02:40;52.47;;;17.10;;
39890;SDS011;25564;53.312;9.790;2024-01-11T10:05:11;54.87;;;17.07;;
39890;SDS011;25564;53.312;9.790;2024-01-11T10:07:45;56.87;;;17.53;;
39890;SDS011;25564;53.312;9.790;2024-01-11T10:10:19;52.57;;;15.47;;
39890;SDS011;25564;53.312;9.790;2024-01-11T10:12:50;49.83;;;17.07;;
39890;SDS011;25564;53.312;9.790;2024-01-11T10:15:23;52.07;;;17.67;;
39890;SDS011;25564;53.312;9.790;2024-01-11T10:17:55;49.73;;;16.37;;
39890;SDS011;25564;53.312;9.790;2024-01-11T10:20:27;48.50;;;16.17;;
39890;SDS011;25564;53.312;9.790;2024-01-11T10:23:02;49.53;;;16.53;;
39890;SDS011;25564;53.312;9.790;2024-01-11T10:25:33;46.70;;;15.47;;
39890;SDS011;25564;53.312;9.790;2024-01-11T10:28:06;52.63;;;19.40;;
39890;SDS011;25564;53.312;9.790;2024-01-11T10:30:38;49.00;;;16.30;;
39890;SDS011;25564;53.312;9.790;2024-01-11T10:33:12;49.67;;;16.07;;
39890;SDS011;25564;53.312;9.790;2024-01-11T10:35:44;49.37;;;18.20;;
39890;SDS011;25564;53.312;9.790;2024-01-11T10:38:15;53.37;;;17.07;;
39890;SDS011;25564;53.312;9.790;2024-01-11T10:40:47;48.90;;;17.73;;
39890;SDS011;25564;53.312;9.790;2024-01-11T10:43:19;52.70;;;18.23;;
39890;SDS011;25564;53.312;9.790;2024-01-11T10:45:53;58.00;;;18.77;;
39890;SDS011;25564;53.312;9.790;2024-01-11T10:48:30;64.43;;;21.73;;
39890;SDS011;25564;53.312;9.790;2024-01-11T10:51:03;47.53;;;16.93;;
39890;SDS011;25564;53.312;9.790;2024-01-11T10:56:17;48.77;;;15.37;;
39890;SDS011;25564;53.312;9.790;2024-01-11T10:58:50;49.23;;;18.80;;
39890;SDS011;25564;53.312;9.790;2024-01-11T11:01:22;54.83;;;19.93;;
39890;SDS011;25564;53.312;9.790;2024-01-11T11:03:55;55.30;;;17.53;;
39890;SDS011;25564;53.312;9.790;2024-01-11T11:06:28;47.47;;;17.27;;
39890;SDS011;25564;53.312;9.790;2024-01-11T11:09:03;52.77;;;17.17;;
39890;SDS011;25564;53.312;9.790;2024-01-11T11:11:35;50.43;;;17.00;;
39890;SDS011;25564;53.312;9.790;2024-01-11T11:14:07;53.70;;;18.30;;
39890;SDS011;25564;53.312;9.790;2024-01-11T11:16:41;48.70;;;17.90;;
39890;SDS011;25564;53.312;9.790;2024-01-11T11:19:13;48.03;;;16.20;;
39890;SDS011;25564;53.312;9.790;2024-01-11T11:21:47;43.03;;;16.00;;
39890;SDS011;25564;53.312;9.790;2024-01-11T11:24:20;55.60;;;17.70;;
39890;SDS011;25564;53.312;9.790;2024-01-11T11:26:51;58.87;;;19.30;;
39890;SDS011;25564;53.312;9.790;2024-01-11T11:29:23;56.53;;;18.20;;
39890;SDS011;25564;53.312;9.790;2024-01-11T11:31:54;53.17;;;17.93;;
39890;SDS011;25564;53.312;9.790;2024-01-11T11:34:59;56.50;;;18.00;;
39890;SDS011;25564;53.312;9.790;2024-01-11T11:37:23;49.60;;;18.33;;
39890;SDS011;25564;53.312;9.790;2024-01-11T11:39:56;52.30;;;18.53;;
39890;SDS011;25564;53.312;9.790;2024-01-11T11:42:30;52.70;;;17.67;;
39890;SDS011;25564;53.312;9.790;2024-01-11T11:45:02;50.03;;;17.23;;
39890;SDS011;25564;53.312;9.790;2024-01-11T11:47:35;43.07;;;15.10;;
39890;SDS011;25564;53.312;9.790;2024-01-11T11:50:11;58.20;;;19.77;;
39890;SDS011;25564;53.312;9.790;2024-01-11T11:52:43;60.10;;;17.50;;
39890;SDS011;25564;53.312;9.790;2024-01-11T11:55:16;59.17;;;18.67;;
39890;SDS011;25564;53.312;9.790;2024-01-11T11:57:48;47.77;;;18.17;;
39890;SDS011;25564;53.312;9.790;2024-01-11T12:00:20;57.70;;;19.00;;
39890;SDS011;25564;53.312;9.790;2024-01-11T12:02:51;50.87;;;18.03;;
39890;SDS011;25564;53.312;9.790;2024-01-11T12:05:25;47.73;;;18.77;;
39890;SDS011;25564;53.312;9.790;2024-01-11T12:07:57;58.93;;;20.70;;
39890;SDS011;25564;53.312;9.790;2024-01-11T12:10:28;48.60;;;18.93;;
39890;SDS011;25564;53.312;9.790;2024-01-11T12:12:59;55.23;;;17.83;;
39890;SDS011;25564;53.312;9.790;2024-01-11T12:15:31;54.80;;;18.07;;
39890;SDS011;25564;53.312;9.790;2024-01-11T12:18:03;56.20;;;19.87;;
39890;SDS011;25564;53.312;9.790;2024-01-11T12:20:35;55.67;;;18.27;;
39890;SDS011;25564;53.312;9.790;2024-01-11T12:23:07;64.60;;;19.47;;
39890;SDS011;25564;53.312;9.790;2024-01-11T12:25:40;55.13;;;18.70;;
39890;SDS011;25564;53.312;9.790;2024-01-11T12:28:11;49.10;;;18.60;;
39890;SDS011;25564;53.312;9.790;2024-01-11T12:30:44;56.57;;;18.30;;
39890;SDS011;25564;53.312;9.790;2024-01-11T12:33:16;63.87;;;19.00;;
39890;SDS011;25564;53.312;9.790;2024-01-11T12:35:48;56.23;;;19.30;;
39890;SDS011;25564;53.312;9.790;2024-01-11T12:38:20;48.03;;;17.33;;
39890;SDS011;25564;53.312;9.790;2024-01-11T12:40:52;60.17;;;20.50;;
39890;SDS011;25564;53.312;9.790;2024-01-11T12:43:23;52.43;;;18.47;;
39890;SDS011;25564;53.312;9.790;2024-01-11T12:45:55;59.13;;;18.57;;
39890;SDS011;25564;53.312;9.790;2024-01-11T12:48:27;50.07;;;17.23;;
39890;SDS011;25564;53.312;9.790;2024-01-11T12:50:58;53.00;;;18.53;;
39890;SDS011;25564;53.312;9.790;2024-01-11T12:53:47;52.07;;;17.60;;
39890;SDS011;25564;53.312;9.790;2024-01-11T12:56:22;59.10;;;20.17;;
39890;SDS011;25564;53.312;9.790;2024-01-11T12:59:04;53.67;;;19.87;;
39890;SDS011;25564;53.312;9.790;2024-01-11T13:01:40;50.50;;;18.47;;
39890;SDS011;25564;53.312;9.790;2024-01-11T13:04:11;59.93;;;19.67;;
39890;SDS011;25564;53.312;9.790;2024-01-11T13:06:43;61.57;;;19.97;;
39890;SDS011;25564;53.312;9.790;2024-01-11T13:09:15;57.13;;;19.43;;
39890;SDS011;25564;53.312;9.790;2024-01-11T13:11:46;61.97;;;21.30;;
39890;SDS011;25564;53.312;9.790;2024-01-11T13:14:18;53.50;;;18.67;;
39890;SDS011;25564;53.312;9.790;2024-01-11T13:16:50;56.27;;;19.20;;
39890;SDS011;25564;53.312;9.790;2024-01-11T13:19:22;66.43;;;20.57;;
39890;SDS011;25564;53.312;9.790;2024-01-11T13:21:58;51.33;;;18.90;;
39890;SDS011;25564;53.312;9.790;2024-01-11T13:24:29;58.60;;;20.47;;
39890;SDS011;25564;53.312;9.790;2024-01-11T13:27:02;64.20;;;20.90;;
39890;SDS011;25564;53.312;9.790;2024-01-11T13:29:34;57.47;;;19.20;;
39890;SDS011;25564;53.312;9.790;2024-01-11T13:32:06;62.03;;;21.07;;
39890;SDS011;25564;53.312;9.790;2024-01-11T13:34:38;71.00;;;20.77;;
39890;SDS011;25564;53.312;9.790;2024-01-11T13:37:09;57.70;;;20.37;;
39890;SDS011;25564;53.312;9.790;2024-01-11T13:39:40;59.40;;;18.80;;
39890;SDS011;25564;53.312;9.790;2024-01-11T13:42:12;64.10;;;20.20;;
39890;SDS011;25564;53.312;9.790;2024-01-11T13:44:43;69.10;;;20.80;;
39890;SDS011;25564;53.312;9.790;2024-01-11T13:47:15;68.93;;;21.77;;
39890;SDS011;25564;53.312;9.790;2024-01-11T13:49:46;72.93;;;22.63;;
39890;SDS011;25564;53.312;9.790;2024-01-11T13:52:18;67.07;;;22.20;;
39890;SDS011;25564;53.312;9.790;2024-01-11T13:54:49;58.47;;;21.23;;
39890;SDS011;25564;53.312;9.790;2024-01-11T13:57:20;58.90;;;19.60;;
39890;SDS011;25564;53.312;9.790;2024-01-11T13:59:52;57.27;;;19.23;;
39890;SDS011;25564;53.312;9.790;2024-01-11T14:02:23;54.33;;;19.67;;
39890;SDS011;25564;53.312;9.790;2024-01-11T14:04:55;64.70;;;20.37;;
39890;SDS011;25564;53.312;9.790;2024-01-11T14:07:26;60.23;;;21.17;;
39890;SDS011;25564;53.312;9.790;2024-01-11T14:09:58;64.17;;;20.53;;
39890;SDS011;25564;53.312;9.790;2024-01-11T14:12:29;64.00;;;20.83;;
39890;SDS011;25564;53.312;9.790;2024-01-11T14:15:01;64.50;;;19.47;;
39890;SDS011;25564;53.312;9.790;2024-01-11T14:17:37;66.17;;;20.47;;
39890;SDS011;25564;53.312;9.790;2024-01-11T14:20:10;71.03;;;21.33;;
39890;SDS011;25564;53.312;9.790;2024-01-11T14:22:46;57.30;;;20.67;;
39890;SDS011;25564;53.312;9.790;2024-01-11T14:25:21;55.57;;;19.27;;
39890;SDS011;25564;53.312;9.790;2024-01-11T14:27:55;66.40;;;20.83;;
39890;SDS011;25564;53.312;9.790;2024-01-11T14:30:27;66.27;;;20.27;;
39890;SDS011;25564;53.312;9.790;2024-01-11T14:32:58;69.73;;;24.23;;
39890;SDS011;25564;53.312;9.790;2024-01-11T14:35:30;78.80;;;23.67;;
39890;SDS011;25564;53.312;9.790;2024-01-11T14:38:02;69.63;;;23.27;;
39890;SDS011;25564;53.312;9.790;2024-01-11T14:40:35;65.43;;;20.97;;
39890;SDS011;25564;53.312;9.790;2024-01-11T14:43:06;70.73;;;23.67;;
39890;SDS011;25564;53.312;9.790;2024-01-11T14:45:39;76.20;;;25.43;;
39890;SDS011;25564;53.312;9.790;2024-01-11T14:48:11;79.93;;;25.67;;
39890;SDS011;25564;53.312;9.790;2024-01-11T14:50:43;81.70;;;27.33;;
39890;SDS011;25564;53.312;9.790;2024-01-11T14:53:15;81.67;;;26.37;;
39890;SDS011;25564;53.312;9.790;2024-01-11T14:55:46;85.00;;;27.13;;